HTPE/PMA METAR and TAF weather

Enter ICAO airport designator
Station Type Date Time Source
HTPE METAR 2018/12/12 02:00 UTC NOAA

HTPE 120200Z 00000KT 9999 TS BKN016 FEW018CB 26/25 Q1013


Station Type Date Time Source
HTPE Decoded METAR 2018/12/12 02:00 UTC NOAA

Pemba / Karume Airport, Tanzania (HTPE) 05-15S 039-49E
Dec 11, 2018 - 09:00 PM EST / 2018.12.12 0200 UTC
Wind: Calm:0
Visibility: greater than 7 mile(s):0
Sky conditions: mostly cloudy
Weather: thunder; Cumulonimbus clouds observed
Temperature: 78 F (26 C)
Dew Point: 77 F (25 C)
Relative Humidity: 94%
Pressure (altimeter): 29.91 in. Hg (1013 hPa)
ob: HTPE 120200Z 00000KT 9999 TS BKN016 FEW018CB 26/25 Q1013
cycle: 2

Station Type Date Time Source
HTPE TAF 2012/09/13 12:46 UTC NOAA

TAF HTPE 131000Z 1312/1412 16010KT 9999 SHRA SCT024 BKN080
BECMG 1315/1318 SCT021
BECMG 1321/1324 12005KT FEW019
BECMG 1403/1406 17005KT SCT018
BECMG 1409/1412 15010KT 9999 FEW024


Example: see airport list